Time;durP1;ratioP1;P1;durP2;ratioP2;P2;SDS_P1;SDS_P2;PMS_P1;PMS_P2;Temp;Humidity;BMP_temperature;BMP_pressure;BME280_temperature;BME280_humidity;BME280_pressure;Samples;Min_cycle;Max_cycle;Signal;HPM_P1;HPM_P2
2023/12/13 00:01:34;;;;;;;16.10;6.88;;;;;;;;;;4985741;28;20045;-49
2023/12/13 00:04:01;;;;;;;15.57;6.28;;;;;;;;;;4988683;28;20111;-51
2023/12/13 00:06:30;;;;;;;15.73;6.22;;;;;;;;;;4996770;28;20037;-47
2023/12/13 00:09:00;;;;;;;16.47;6.67;;;;;;;;;;4988120;28;20935;-48
2023/12/13 00:11:28;;;;;;;13.77;6.22;;;;;;;;;;4989885;28;20034;-49
2023/12/13 00:13:56;;;;;;;16.85;7.75;;;;;;;;;;4984681;28;20468;-51
2023/12/13 00:16:24;;;;;;;13.82;6.30;;;;;;;;;;4982092;28;20045;-47
2023/12/13 00:18:52;;;;;;;12.73;6.32;;;;;;;;;;4985195;28;20709;-50
2023/12/13 00:21:20;;;;;;;13.23;6.13;;;;;;;;;;4988187;28;20038;-51
2023/12/13 00:23:49;;;;;;;12.40;6.22;;;;;;;;;;4993362;28;20099;-49
2023/12/13 00:26:20;;;;;;;12.43;6.10;;;;;;;;;;4976631;28;20087;-50
2023/12/13 00:28:48;;;;;;;14.20;7.00;;;;;;;;;;5001916;28;20042;-50
2023/12/13 00:31:16;;;;;;;13.65;6.50;;;;;;;;;;4984195;28;20045;-50
2023/12/13 00:33:44;;;;;;;12.50;5.83;;;;;;;;;;5007143;28;20056;-48
2023/12/13 00:36:12;;;;;;;12.63;5.80;;;;;;;;;;4989190;28;20055;-52
2023/12/13 00:38:40;;;;;;;14.15;6.57;;;;;;;;;;4995287;28;20572;-49
2023/12/13 00:41:09;;;;;;;16.83;7.72;;;;;;;;;;4978538;28;21547;-50
2023/12/13 00:43:37;;;;;;;14.00;6.68;;;;;;;;;;5000722;28;20133;-52
2023/12/13 00:46:06;;;;;;;15.03;6.70;;;;;;;;;;4985139;28;20069;-47
2023/12/13 00:48:33;;;;;;;20.45;8.48;;;;;;;;;;4995243;28;20708;-49
2023/12/13 00:51:01;;;;;;;15.27;7.22;;;;;;;;;;4984476;28;20045;-50
2023/12/13 00:53:29;;;;;;;17.38;7.68;;;;;;;;;;5002269;28;20053;-51
2023/12/13 00:55:57;;;;;;;16.75;7.22;;;;;;;;;;4979490;28;20045;-48
2023/12/13 00:58:26;;;;;;;17.03;7.13;;;;;;;;;;5000415;28;20049;-48
2023/12/13 01:00:57;;;;;;;18.45;7.85;;;;;;;;;;4988431;28;20132;-50
2023/12/13 01:03:25;;;;;;;16.73;8.32;;;;;;;;;;4992173;28;20069;-48
2023/12/13 01:05:52;;;;;;;19.55;8.38;;;;;;;;;;4980921;28;20045;-49
2023/12/13 01:08:20;;;;;;;18.65;8.52;;;;;;;;;;5015984;28;20042;-49
2023/12/13 01:10:48;;;;;;;19.47;8.80;;;;;;;;;;4995563;28;20048;-49
2023/12/13 01:13:16;;;;;;;22.42;8.93;;;;;;;;;;4987886;28;20049;-49
2023/12/13 01:15:45;;;;;;;18.00;7.70;;;;;;;;;;4993767;28;20442;-51
2023/12/13 01:18:14;;;;;;;16.30;7.03;;;;;;;;;;5000703;28;20064;-48
2023/12/13 01:20:43;;;;;;;16.50;7.47;;;;;;;;;;5000172;28;20945;-51
2023/12/13 01:23:11;;;;;;;17.63;7.30;;;;;;;;;;4996001;28;20053;-50
2023/12/13 01:25:39;;;;;;;17.05;7.68;;;;;;;;;;4983978;28;20107;-49
2023/12/13 01:28:07;;;;;;;21.98;8.27;;;;;;;;;;4994628;28;20147;-49
2023/12/13 01:30:35;;;;;;;17.63;7.45;;;;;;;;;;4998086;28;20129;-49
2023/12/13 01:33:04;;;;;;;15.32;7.18;;;;;;;;;;4990421;28;20739;-51
2023/12/13 01:35:32;;;;;;;15.20;6.67;;;;;;;;;;4998974;28;20050;-49
2023/12/13 01:38:00;;;;;;;17.25;7.55;;;;;;;;;;4985711;28;20041;-48
2023/12/13 01:40:27;;;;;;;16.48;7.90;;;;;;;;;;5002096;28;20041;-50
2023/12/13 01:42:55;;;;;;;17.98;7.68;;;;;;;;;;4989467;28;20046;-50
2023/12/13 01:45:23;;;;;;;18.10;7.78;;;;;;;;;;4996212;28;20553;-48
2023/12/13 01:47:53;;;;;;;16.50;7.53;;;;;;;;;;4992465;28;20064;-47
2023/12/13 01:50:23;;;;;;;18.60;7.50;;;;;;;;;;4991349;28;20045;-49
2023/12/13 01:52:51;;;;;;;21.38;8.55;;;;;;;;;;5001575;28;20049;-51
2023/12/13 01:55:19;;;;;;;22.23;8.48;;;;;;;;;;4990539;28;20927;-48
2023/12/13 01:57:47;;;;;;;20.05;7.97;;;;;;;;;;5000035;28;20038;-50
2023/12/13 02:00:17;;;;;;;21.13;9.13;;;;;;;;;;4997590;28;21360;-50
2023/12/13 02:02:46;;;;;;;25.45;9.73;;;;;;;;;;4996824;28;20037;-48
2023/12/13 02:05:14;;;;;;;20.10;8.40;;;;;;;;;;4990592;28;20115;-50
2023/12/13 02:07:44;;;;;;;19.63;8.38;;;;;;;;;;5000255;28;20076;-48
2023/12/13 02:10:12;;;;;;;22.58;9.18;;;;;;;;;;4959092;28;20485;-50
2023/12/13 02:12:40;;;;;;;23.90;8.90;;;;;;;;;;4997783;28;20069;-49
2023/12/13 02:15:10;;;;;;;22.92;9.90;;;;;;;;;;5000628;28;20056;-48
2023/12/13 02:17:37;;;;;;;23.83;8.95;;;;;;;;;;4990446;28;20048;-48
2023/12/13 02:20:06;;;;;;;24.27;8.90;;;;;;;;;;4992606;28;20124;-47
2023/12/13 02:22:36;;;;;;;22.48;8.75;;;;;;;;;;4991308;28;24307;-52
2023/12/13 02:25:06;;;;;;;23.03;8.93;;;;;;;;;;4994432;28;20083;-47
2023/12/13 02:27:34;;;;;;;22.77;8.90;;;;;;;;;;4988882;28;20356;-47
2023/12/13 02:30:02;;;;;;;25.52;10.43;;;;;;;;;;5001616;28;20057;-47
2023/12/13 02:32:30;;;;;;;24.60;10.48;;;;;;;;;;4989906;28;20351;-48
2023/12/13 02:34:58;;;;;;;21.98;9.13;;;;;;;;;;5001796;28;20099;-50
2023/12/13 02:37:26;;;;;;;24.77;9.20;;;;;;;;;;4980685;28;20049;-49
2023/12/13 02:39:55;;;;;;;23.35;9.80;;;;;;;;;;4996921;28;20059;-54
2023/12/13 02:42:23;;;;;;;22.27;9.07;;;;;;;;;;4976434;28;20901;-50
2023/12/13 02:44:51;;;;;;;23.50;9.30;;;;;;;;;;4992272;28;20037;-51
2023/12/13 02:47:21;;;;;;;23.23;8.93;;;;;;;;;;4995865;28;20123;-48
2023/12/13 02:49:49;;;;;;;22.47;8.97;;;;;;;;;;4989405;28;20508;-47
2023/12/13 02:52:19;;;;;;;23.83;8.95;;;;;;;;;;4995767;28;20053;-47
2023/12/13 02:54:47;;;;;;;23.05;8.70;;;;;;;;;;4992357;28;20049;-48
2023/12/13 02:57:16;;;;;;;22.80;9.13;;;;;;;;;;4966710;28;20406;-47
2023/12/13 02:59:44;;;;;;;23.15;9.05;;;;;;;;;;5006904;28;20514;-47
2023/12/13 03:02:11;;;;;;;24.63;10.60;;;;;;;;;;4997909;28;20252;-48
2023/12/13 03:04:39;;;;;;;29.38;9.98;;;;;;;;;;4994930;28;20427;-49
2023/12/13 03:07:09;;;;;;;27.48;10.05;;;;;;;;;;4993149;28;20053;-52
2023/12/13 03:09:37;;;;;;;29.13;10.55;;;;;;;;;;4986697;28;20045;-48
2023/12/13 03:12:05;;;;;;;28.50;10.38;;;;;;;;;;5000009;28;20045;-48
2023/12/13 03:14:34;;;;;;;27.73;10.43;;;;;;;;;;5000656;28;20042;-50
2023/12/13 03:17:02;;;;;;;28.42;10.82;;;;;;;;;;4994168;28;20041;-48
2023/12/13 03:19:29;;;;;;;29.42;10.57;;;;;;;;;;4987888;28;20056;-48
2023/12/13 03:21:57;;;;;;;26.60;11.75;;;;;;;;;;4990458;28;20037;-48
2023/12/13 03:24:25;;;;;;;27.38;10.38;;;;;;;;;;4998720;28;20046;-48
2023/12/13 03:26:53;;;;;;;28.30;10.53;;;;;;;;;;4974550;28;20352;-49
2023/12/13 03:29:20;;;;;;;31.33;11.82;;;;;;;;;;5001086;28;20049;-51
2023/12/13 03:31:49;;;;;;;28.80;10.98;;;;;;;;;;4995770;28;20033;-48
2023/12/13 03:34:18;;;;;;;25.48;10.80;;;;;;;;;;5005496;28;20049;-48
2023/12/13 03:36:47;;;;;;;34.10;12.68;;;;;;;;;;5003985;28;20128;-50
2023/12/13 03:39:16;;;;;;;33.63;11.80;;;;;;;;;;4967169;28;20044;-49
2023/12/13 03:41:45;;;;;;;38.53;13.70;;;;;;;;;;4977593;28;20096;-50
2023/12/13 03:44:15;;;;;;;32.15;12.07;;;;;;;;;;4970105;28;20061;-52
2023/12/13 03:46:43;;;;;;;31.88;11.23;;;;;;;;;;4968109;28;20583;-48
2023/12/13 03:49:12;;;;;;;32.92;12.15;;;;;;;;;;4993445;28;20415;-50
2023/12/13 03:51:43;;;;;;;30.93;11.50;;;;;;;;;;4985989;28;20048;-47
2023/12/13 03:54:12;;;;;;;27.60;10.77;;;;;;;;;;4990029;28;20222;-48
2023/12/13 03:56:41;;;;;;;28.05;9.68;;;;;;;;;;4987930;28;20644;-48
2023/12/13 03:59:09;;;;;;;31.10;10.38;;;;;;;;;;5010353;28;20427;-48
2023/12/13 04:01:37;;;;;;;26.48;10.10;;;;;;;;;;4991429;28;20049;-49
2023/12/13 04:04:04;;;;;;;24.57;9.43;;;;;;;;;;5003771;28;20123;-47
2023/12/13 04:06:34;;;;;;;27.83;10.05;;;;;;;;;;5000217;28;20451;-50
2023/12/13 04:09:01;;;;;;;25.48;9.93;;;;;;;;;;4975825;28;20128;-48
2023/12/13 04:11:29;;;;;;;25.23;9.75;;;;;;;;;;4993440;28;20037;-48
2023/12/13 04:13:57;;;;;;;23.58;8.80;;;;;;;;;;4994169;28;20054;-47
2023/12/13 04:16:26;;;;;;;23.60;9.37;;;;;;;;;;4999429;28;20048;-47
2023/12/13 04:18:53;;;;;;;24.17;8.75;;;;;;;;;;4990984;28;20049;-51
2023/12/13 04:21:21;;;;;;;24.25;9.75;;;;;;;;;;4988505;28;20055;-51
2023/12/13 04:23:50;;;;;;;22.55;8.05;;;;;;;;;;4988446;28;20038;-47
2023/12/13 04:26:18;;;;;;;25.15;9.07;;;;;;;;;;4970699;28;20044;-47
2023/12/13 04:28:46;;;;;;;23.30;8.87;;;;;;;;;;4998744;28;20045;-51
2023/12/13 04:31:14;;;;;;;29.40;9.60;;;;;;;;;;5002495;28;20779;-50
2023/12/13 04:33:42;;;;;;;26.38;8.70;;;;;;;;;;4993404;28;20041;-47
2023/12/13 04:36:10;;;;;;;23.48;8.32;;;;;;;;;;5009070;28;20046;-48
2023/12/13 04:38:38;;;;;;;22.73;8.20;;;;;;;;;;5002680;28;20046;-47
2023/12/13 04:41:08;;;;;;;21.93;8.50;;;;;;;;;;4996927;28;20053;-47
2023/12/13 04:43:36;;;;;;;23.65;9.07;;;;;;;;;;4996874;28;20734;-47
2023/12/13 04:46:03;;;;;;;22.75;8.55;;;;;;;;;;5001767;28;20072;-50
2023/12/13 04:48:33;;;;;;;22.88;8.63;;;;;;;;;;5002790;28;20041;-48
2023/12/13 04:51:01;;;;;;;26.88;8.95;;;;;;;;;;4998813;28;20049;-47
2023/12/13 04:53:28;;;;;;;23.03;9.07;;;;;;;;;;5004160;28;20056;-50
2023/12/13 04:55:56;;;;;;;25.67;10.15;;;;;;;;;;4987864;28;20446;-47
2023/12/13 04:58:26;;;;;;;24.05;9.25;;;;;;;;;;5004982;28;20049;-49
2023/12/13 05:00:54;;;;;;;25.33;10.00;;;;;;;;;;4983188;28;20048;-47
2023/12/13 05:03:22;;;;;;;26.23;9.02;;;;;;;;;;4995528;28;20079;-49
2023/12/13 05:05:50;;;;;;;27.80;10.47;;;;;;;;;;4971324;28;20041;-47
2023/12/13 05:08:18;;;;;;;23.23;9.05;;;;;;;;;;5008241;28;20643;-49
2023/12/13 05:10:45;;;;;;;24.83;9.50;;;;;;;;;;4994305;28;20053;-48
2023/12/13 05:13:13;;;;;;;25.48;9.98;;;;;;;;;;5005841;28;20042;-47
2023/12/13 05:15:42;;;;;;;21.48;8.45;;;;;;;;;;4993283;28;20853;-47
2023/12/13 05:18:10;;;;;;;24.03;9.57;;;;;;;;;;5020927;28;20652;-49
2023/12/13 05:20:38;;;;;;;20.52;9.13;;;;;;;;;;4972657;28;20562;-48
2023/12/13 05:23:06;;;;;;;23.90;9.88;;;;;;;;;;4990537;28;20052;-49
2023/12/13 05:25:34;;;;;;;21.80;8.35;;;;;;;;;;4999981;28;20038;-49
2023/12/13 05:28:02;;;;;;;24.65;10.80;;;;;;;;;;4986507;28;20340;-49
2023/12/13 05:30:30;;;;;;;29.00;10.20;;;;;;;;;;4989250;28;20380;-46
2023/12/13 05:32:59;;;;;;;25.20;9.85;;;;;;;;;;4999756;28;20715;-49
2023/12/13 05:35:27;;;;;;;23.50;10.05;;;;;;;;;;5002810;28;20044;-48
2023/12/13 05:37:55;;;;;;;24.05;9.65;;;;;;;;;;4985169;28;20037;-48
2023/12/13 05:40:23;;;;;;;23.40;9.90;;;;;;;;;;4994188;28;20128;-49
2023/12/13 05:42:51;;;;;;;19.13;8.10;;;;;;;;;;5001025;28;20100;-49
2023/12/13 05:45:18;;;;;;;20.85;9.02;;;;;;;;;;5004415;28;20050;-48
2023/12/13 05:47:48;;;;;;;20.73;8.40;;;;;;;;;;4987777;28;20100;-51
2023/12/13 05:50:17;;;;;;;23.02;8.80;;;;;;;;;;4983403;28;20052;-49
2023/12/13 05:52:46;;;;;;;25.23;9.57;;;;;;;;;;4989154;28;20217;-49
2023/12/13 05:55:14;;;;;;;22.17;8.50;;;;;;;;;;4991564;28;20058;-49
2023/12/13 05:57:42;;;;;;;23.77;8.60;;;;;;;;;;4974029;28;20037;-50
2023/12/13 06:00:10;;;;;;;27.75;9.70;;;;;;;;;;4993576;28;20045;-50
2023/12/13 06:02:38;;;;;;;24.75;9.45;;;;;;;;;;4989480;28;20449;-47
2023/12/13 06:05:25;;;;;;;22.42;9.07;;;;;;;;;;4977026;28;20037;-49
2023/12/13 06:07:53;;;;;;;21.10;9.47;;;;;;;;;;4991330;28;20056;-47
2023/12/13 06:10:21;;;;;;;20.58;8.90;;;;;;;;;;4988222;28;20201;-48
2023/12/13 06:12:50;;;;;;;23.05;8.60;;;;;;;;;;4991288;28;20092;-48
2023/12/13 06:15:19;;;;;;;21.50;8.55;;;;;;;;;;4988917;28;22083;-49
2023/12/13 06:17:46;;;;;;;19.80;8.40;;;;;;;;;;5006602;28;20107;-49
2023/12/13 06:20:14;;;;;;;25.13;8.20;;;;;;;;;;4990646;28;20045;-47
2023/12/13 06:22:43;;;;;;;17.55;7.28;;;;;;;;;;4992675;28;20041;-48
2023/12/13 06:25:11;;;;;;;17.73;6.70;;;;;;;;;;4990904;28;20399;-50
2023/12/13 06:27:39;;;;;;;15.63;6.38;;;;;;;;;;4979627;28;20623;-48
2023/12/13 06:30:08;;;;;;;16.92;6.53;;;;;;;;;;5001154;28;20111;-47
2023/12/13 06:32:36;;;;;;;11.70;4.43;;;;;;;;;;4982738;28;20049;-51
2023/12/13 06:35:04;;;;;;;11.63;3.90;;;;;;;;;;4990362;28;20103;-49
2023/12/13 06:37:32;;;;;;;12.57;4.57;;;;;;;;;;4996797;28;20712;-52
2023/12/13 06:40:01;;;;;;;12.23;3.28;;;;;;;;;;4995284;28;20836;-51
2023/12/13 06:42:29;;;;;;;8.95;3.17;;;;;;;;;;4990945;28;20042;-51
2023/12/13 06:44:57;;;;;;;10.80;3.67;;;;;;;;;;4998877;28;20051;-47
2023/12/13 06:47:24;;;;;;;9.65;3.25;;;;;;;;;;4995467;28;20033;-49
2023/12/13 06:49:56;;;;;;;11.00;4.07;;;;;;;;;;4996441;28;20715;-48
2023/12/13 06:52:24;;;;;;;10.60;3.97;;;;;;;;;;4983131;28;20042;-48
2023/12/13 06:54:52;;;;;;;9.52;3.53;;;;;;;;;;5002948;28;20137;-48
2023/12/13 06:57:21;;;;;;;9.40;2.87;;;;;;;;;;4972173;28;20042;-48
2023/12/13 06:59:49;;;;;;;10.30;3.90;;;;;;;;;;4998608;28;20459;-48
2023/12/13 07:02:18;;;;;;;7.20;3.03;;;;;;;;;;4986063;28;20037;-48
2023/12/13 07:04:45;;;;;;;9.02;2.90;;;;;;;;;;5000700;28;20499;-47
2023/12/13 07:07:15;;;;;;;8.45;2.97;;;;;;;;;;4983806;28;20623;-47
2023/12/13 07:09:44;;;;;;;8.50;2.60;;;;;;;;;;5003736;28;20048;-46
2023/12/13 07:12:12;;;;;;;8.52;2.47;;;;;;;;;;4984782;28;20050;-49
2023/12/13 07:14:41;;;;;;;8.68;2.10;;;;;;;;;;5004813;28;20048;-49
2023/12/13 07:17:09;;;;;;;7.10;2.28;;;;;;;;;;4978410;28;20049;-47
2023/12/13 07:19:37;;;;;;;6.45;1.58;;;;;;;;;;5004858;28;20045;-48
2023/12/13 07:22:05;;;;;;;5.93;1.60;;;;;;;;;;4982315;28;20037;-47
2023/12/13 07:24:32;;;;;;;5.88;1.48;;;;;;;;;;4998233;28;20029;-50
2023/12/13 07:27:00;;;;;;;5.22;1.48;;;;;;;;;;4988575;28;20061;-49
2023/12/13 07:29:33;;;;;;;6.50;1.67;;;;;;;;;;4993109;28;20466;-48
2023/12/13 07:32:04;;;;;;;6.00;1.52;;;;;;;;;;4988284;28;20063;-46
2023/12/13 07:34:31;;;;;;;6.20;2.37;;;;;;;;;;5001821;28;20048;-49
2023/12/13 07:36:59;;;;;;;7.13;2.30;;;;;;;;;;4981990;28;20044;-51
2023/12/13 07:39:30;;;;;;;5.88;2.13;;;;;;;;;;5001804;28;20049;-50
2023/12/13 07:41:59;;;;;;;5.93;2.15;;;;;;;;;;4985455;28;20045;-47
2023/12/13 07:44:28;;;;;;;6.32;2.60;;;;;;;;;;5005182;28;20050;-46
2023/12/13 07:46:55;;;;;;;6.07;2.57;;;;;;;;;;4984819;28;20049;-46
2023/12/13 07:49:25;;;;;;;7.10;2.75;;;;;;;;;;4988951;28;20091;-47
2023/12/13 07:51:52;;;;;;;6.72;2.75;;;;;;;;;;4998279;28;20072;-47
2023/12/13 07:54:21;;;;;;;7.15;2.40;;;;;;;;;;4964327;28;20057;-47
2023/12/13 07:56:52;;;;;;;8.23;2.88;;;;;;;;;;4974420;28;20581;-50
2023/12/13 07:59:20;;;;;;;6.60;3.10;;;;;;;;;;4976809;28;20136;-49
2023/12/13 08:01:48;;;;;;;8.02;3.33;;;;;;;;;;4960968;28;20041;-46
2023/12/13 08:04:16;;;;;;;6.15;2.65;;;;;;;;;;4959641;28;20057;-46
2023/12/13 08:06:45;;;;;;;6.88;3.38;;;;;;;;;;4965860;28;20045;-47
2023/12/13 08:09:15;;;;;;;5.60;2.67;;;;;;;;;;4961655;28;20049;-51
2023/12/13 08:11:48;;;;;;;6.47;3.30;;;;;;;;;;4982245;28;20426;-49
2023/12/13 08:14:16;;;;;;;6.50;3.20;;;;;;;;;;4975823;28;20427;-47
2023/12/13 08:16:44;;;;;;;6.63;3.13;;;;;;;;;;4972399;28;20132;-51
2023/12/13 08:19:12;;;;;;;5.95;3.15;;;;;;;;;;4981119;28;20500;-50
2023/12/13 08:21:41;;;;;;;6.45;3.60;;;;;;;;;;4971281;28;20041;-46
2023/12/13 08:24:11;;;;;;;6.10;3.20;;;;;;;;;;4970540;28;20706;-50
2023/12/13 08:26:38;;;;;;;7.82;3.13;;;;;;;;;;4980730;28;20546;-47
2023/12/13 08:29:06;;;;;;;7.38;3.92;;;;;;;;;;4966516;28;20056;-47
2023/12/13 08:31:35;;;;;;;6.65;3.45;;;;;;;;;;4970907;28;20037;-49
2023/12/13 08:34:03;;;;;;;6.75;3.30;;;;;;;;;;4980052;28;20091;-47
2023/12/13 08:36:32;;;;;;;6.13;3.10;;;;;;;;;;4967428;28;20507;-50
2023/12/13 08:39:02;;;;;;;5.65;3.03;;;;;;;;;;4979858;28;20120;-50
2023/12/13 08:41:32;;;;;;;5.85;2.95;;;;;;;;;;4977097;28;20049;-48
2023/12/13 08:43:59;;;;;;;7.55;3.00;;;;;;;;;;4981148;28;20045;-47
2023/12/13 08:46:27;;;;;;;6.35;2.85;;;;;;;;;;4977338;28;20758;-47
2023/12/13 08:48:55;;;;;;;5.47;2.83;;;;;;;;;;4979149;28;20053;-50
2023/12/13 08:51:40;;;;;;;7.30;2.90;;;;;;;;;;4982000;28;20549;-46
2023/12/13 08:54:08;;;;;;;5.55;2.72;;;;;;;;;;4966334;28;20052;-49
2023/12/13 08:56:37;;;;;;;6.35;2.42;;;;;;;;;;4977470;28;20033;-51
2023/12/13 08:59:05;;;;;;;5.25;2.80;;;;;;;;;;4976449;28;20514;-50
2023/12/13 09:01:33;;;;;;;5.47;2.57;;;;;;;;;;4971596;28;20042;-47
2023/12/13 09:04:01;;;;;;;5.93;2.78;;;;;;;;;;4965941;28;20040;-47
2023/12/13 09:06:28;;;;;;;5.53;2.53;;;;;;;;;;4978665;28;20400;-49
2023/12/13 09:08:56;;;;;;;4.80;1.95;;;;;;;;;;4969932;28;20058;-49
2023/12/13 09:11:24;;;;;;;5.65;1.95;;;;;;;;;;4983825;28;20049;-48
2023/12/13 09:13:53;;;;;;;4.97;2.10;;;;;;;;;;4971273;28;20038;-49
2023/12/13 09:16:21;;;;;;;4.20;1.58;;;;;;;;;;4984506;28;21046;-47
2023/12/13 09:18:49;;;;;;;5.47;1.50;;;;;;;;;;4977785;28;20065;-49
2023/12/13 09:21:17;;;;;;;7.20;1.13;;;;;;;;;;4987230;28;20041;-46
2023/12/13 09:23:48;;;;;;;5.05;0.98;;;;;;;;;;4974246;28;20550;-48
2023/12/13 09:26:16;;;;;;;3.63;1.10;;;;;;;;;;4978454;28;20053;-48
2023/12/13 09:28:44;;;;;;;3.30;0.70;;;;;;;;;;4993090;28;20069;-51
2023/12/13 09:31:14;;;;;;;3.20;0.75;;;;;;;;;;4971745;28;20056;-49
2023/12/13 09:33:42;;;;;;;3.97;0.80;;;;;;;;;;4990788;28;20725;-46
2023/12/13 09:36:10;;;;;;;3.72;0.82;;;;;;;;;;4997256;28;20049;-49
2023/12/13 09:38:38;;;;;;;3.50;0.63;;;;;;;;;;5007191;28;20037;-48
2023/12/13 09:41:06;;;;;;;3.70;0.80;;;;;;;;;;4994616;28;20049;-49
2023/12/13 09:43:38;;;;;;;4.00;0.80;;;;;;;;;;5008475;28;20538;-46
2023/12/13 09:46:07;;;;;;;4.10;1.08;;;;;;;;;;5006270;28;20037;-52
2023/12/13 09:48:38;;;;;;;4.32;1.05;;;;;;;;;;5003138;28;20033;-50
2023/12/13 09:51:06;;;;;;;5.17;0.90;;;;;;;;;;4995268;28;20379;-47
2023/12/13 09:53:39;;;;;;;7.10;1.00;;;;;;;;;;5007251;28;20736;-47
2023/12/13 09:56:08;;;;;;;4.10;0.85;;;;;;;;;;4981530;28;20057;-48
2023/12/13 09:58:35;;;;;;;5.53;0.93;;;;;;;;;;5000479;28;20048;-46
2023/12/13 10:01:06;;;;;;;4.30;0.73;;;;;;;;;;4993438;28;20097;-47
2023/12/13 10:03:33;;;;;;;4.30;0.80;;;;;;;;;;4997652;28;20511;-51
2023/12/13 10:06:05;;;;;;;4.10;0.90;;;;;;;;;;4995103;28;20103;-49
2023/12/13 10:08:33;;;;;;;4.00;0.80;;;;;;;;;;4991391;28;20045;-47
2023/12/13 10:11:01;;;;;;;3.35;0.70;;;;;;;;;;4991640;28;20107;-48
2023/12/13 10:13:28;;;;;;;5.35;1.25;;;;;;;;;;4990734;28;20049;-50
2023/12/13 10:15:56;;;;;;;4.93;0.70;;;;;;;;;;4996986;28;20544;-49
2023/12/13 10:18:24;;;;;;;3.75;0.88;;;;;;;;;;4980954;28;20052;-47
2023/12/13 10:20:52;;;;;;;4.90;1.20;;;;;;;;;;4991722;28;20052;-49
2023/12/13 10:23:21;;;;;;;4.10;0.95;;;;;;;;;;4989824;28;20630;-50
2023/12/13 10:25:49;;;;;;;3.75;0.93;;;;;;;;;;4989213;28;20076;-49
2023/12/13 10:28:25;;;;;;;3.90;0.77;;;;;;;;;;4984689;28;20046;-49
2023/12/13 10:30:53;;;;;;;3.28;0.70;;;;;;;;;;4976223;28;20038;-49
2023/12/13 10:33:21;;;;;;;5.05;0.60;;;;;;;;;;4976393;28;20033;-48
2023/12/13 10:35:50;;;;;;;3.10;0.30;;;;;;;;;;4976766;28;20068;-49
2023/12/13 10:38:18;;;;;;;3.15;0.60;;;;;;;;;;4967577;28;20050;-46
2023/12/13 10:40:47;;;;;;;3.87;0.67;;;;;;;;;;4972694;28;20045;-46
2023/12/13 10:43:15;;;;;;;6.97;0.77;;;;;;;;;;4980255;28;20045;-47
2023/12/13 10:45:45;;;;;;;2.90;0.47;;;;;;;;;;4976736;28;20052;-47
2023/12/13 10:48:16;;;;;;;3.95;0.70;;;;;;;;;;4982906;28;20042;-46
2023/12/13 10:50:47;;;;;;;3.25;0.50;;;;;;;;;;4970567;28;20515;-47
2023/12/13 10:53:16;;;;;;;3.20;0.57;;;;;;;;;;4977085;28;20073;-48
2023/12/13 10:55:44;;;;;;;3.15;0.60;;;;;;;;;;4973393;28;20525;-46
2023/12/13 10:58:14;;;;;;;3.45;0.40;;;;;;;;;;4972370;28;20045;-47
2023/12/13 11:00:42;;;;;;;5.35;0.80;;;;;;;;;;4977777;28;20072;-46
2023/12/13 11:03:12;;;;;;;3.78;0.68;;;;;;;;;;4967810;28;20041;-46
2023/12/13 11:05:41;;;;;;;5.37;0.80;;;;;;;;;;4970377;28;20403;-50
2023/12/13 11:08:14;;;;;;;3.67;0.65;;;;;;;;;;4981135;28;20597;-49
2023/12/13 11:10:43;;;;;;;3.70;0.63;;;;;;;;;;4976155;28;20042;-46
2023/12/13 11:13:21;;;;;;;3.67;0.57;;;;;;;;;;4983819;28;20069;-49
2023/12/13 11:15:50;;;;;;;3.25;0.50;;;;;;;;;;4978308;28;20484;-49
2023/12/13 11:18:20;;;;;;;4.37;0.70;;;;;;;;;;4967216;28;20045;-47
2023/12/13 11:20:47;;;;;;;4.10;0.70;;;;;;;;;;4963188;28;20044;-48
2023/12/13 11:23:15;;;;;;;4.97;0.98;;;;;;;;;;4979017;28;20144;-46
2023/12/13 11:25:45;;;;;;;4.60;0.73;;;;;;;;;;4968301;28;20651;-47
2023/12/13 11:28:20;;;;;;;7.50;0.80;;;;;;;;;;4973970;28;20162;-49
2023/12/13 11:30:48;;;;;;;6.43;0.90;;;;;;;;;;4960100;28;20046;-46
2023/12/13 11:33:21;;;;;;;4.60;0.90;;;;;;;;;;4975674;28;20518;-47
2023/12/13 11:35:50;;;;;;;6.10;0.90;;;;;;;;;;4968242;28;20071;-48
2023/12/13 11:38:18;;;;;;;5.50;0.70;;;;;;;;;;4966772;28;20034;-46
2023/12/13 11:40:46;;;;;;;3.00;0.50;;;;;;;;;;4984144;28;20045;-48
2023/12/13 11:43:14;;;;;;;5.33;0.63;;;;;;;;;;4951964;28;20052;-49
2023/12/13 11:45:49;;;;;;;4.43;0.50;;;;;;;;;;4968821;28;20041;-48
2023/12/13 11:48:18;;;;;;;3.17;0.40;;;;;;;;;;4986964;28;20060;-48
2023/12/13 11:50:47;;;;;;;3.22;0.40;;;;;;;;;;4975458;28;20045;-47
2023/12/13 11:53:17;;;;;;;3.63;0.35;;;;;;;;;;4973416;28;20061;-46
2023/12/13 11:55:45;;;;;;;5.20;0.33;;;;;;;;;;4977681;28;20103;-50
2023/12/13 11:58:15;;;;;;;3.75;0.52;;;;;;;;;;4989454;28;20095;-49
2023/12/13 12:00:43;;;;;;;3.70;0.40;;;;;;;;;;4997294;28;20041;-49
2023/12/13 12:03:11;;;;;;;4.80;0.68;;;;;;;;;;4990703;28;20092;-49
2023/12/13 12:05:42;;;;;;;4.82;0.70;;;;;;;;;;5001884;28;20399;-49
2023/12/13 12:08:11;;;;;;;3.97;0.77;;;;;;;;;;4978886;28;20063;-49
2023/12/13 12:10:44;;;;;;;4.57;0.80;;;;;;;;;;4997171;28;20037;-49
2023/12/13 12:13:12;;;;;;;3.45;0.77;;;;;;;;;;4995963;28;20045;-46
2023/12/13 12:15:44;;;;;;;3.33;0.68;;;;;;;;;;4983649;28;20037;-50
2023/12/13 12:18:14;;;;;;;5.72;0.52;;;;;;;;;;4998154;28;20041;-47
2023/12/13 12:20:44;;;;;;;4.20;0.73;;;;;;;;;;4996575;28;20131;-50
2023/12/13 12:23:12;;;;;;;3.45;0.50;;;;;;;;;;4982236;28;20045;-51
2023/12/13 12:25:42;;;;;;;4.05;0.70;;;;;;;;;;4992874;28;20091;-48
2023/12/13 12:28:11;;;;;;;3.53;0.68;;;;;;;;;;4979948;28;20052;-50
2023/12/13 12:30:39;;;;;;;2.95;0.40;;;;;;;;;;4998636;28;20049;-48
2023/12/13 12:33:07;;;;;;;4.93;0.80;;;;;;;;;;4978746;28;20532;-46
2023/12/13 12:35:36;;;;;;;4.05;0.63;;;;;;;;;;5000090;28;20053;-49
2023/12/13 12:38:11;;;;;;;3.85;0.70;;;;;;;;;;4850422;28;10001119;-49
2023/12/13 12:40:39;;;;;;;4.47;0.60;;;;;;;;;;4991866;28;20252;-50
2023/12/13 12:43:07;;;;;;;4.97;0.50;;;;;;;;;;4973366;28;20049;-47
2023/12/13 12:45:35;;;;;;;2.97;0.45;;;;;;;;;;4990295;28;20223;-47
2023/12/13 12:48:03;;;;;;;3.87;0.70;;;;;;;;;;4984052;28;20042;-49
2023/12/13 12:50:31;;;;;;;3.35;0.40;;;;;;;;;;4984238;28;20050;-49
2023/12/13 12:52:59;;;;;;;4.80;0.40;;;;;;;;;;4977746;28;20049;-47
2023/12/13 12:55:28;;;;;;;4.30;0.50;;;;;;;;;;4997158;28;20053;-48
2023/12/13 12:57:56;;;;;;;3.05;0.40;;;;;;;;;;4984531;28;20080;-48
2023/12/13 13:00:25;;;;;;;3.53;0.30;;;;;;;;;;4986560;28;20048;-49
2023/12/13 13:02:53;;;;;;;4.03;0.30;;;;;;;;;;4992685;28;20044;-47
2023/12/13 13:05:23;;;;;;;2.63;0.30;;;;;;;;;;4289309;28;10000236;-48
2023/12/13 13:07:52;;;;;;;3.65;0.30;;;;;;;;;;4973814;28;20514;-49
2023/12/13 13:10:20;;;;;;;3.07;0.40;;;;;;;;;;4999401;28;20499;-49
2023/12/13 13:12:49;;;;;;;2.20;0.30;;;;;;;;;;4994143;28;20048;-48
2023/12/13 13:15:17;;;;;;;4.05;0.60;;;;;;;;;;4987921;28;20049;-47
2023/12/13 13:17:45;;;;;;;3.25;0.40;;;;;;;;;;5006881;28;20029;-50
2023/12/13 13:20:14;;;;;;;3.05;0.35;;;;;;;;;;4989347;28;20522;-49
2023/12/13 13:22:42;;;;;;;4.03;0.47;;;;;;;;;;4992759;28;20035;-51
2023/12/13 13:25:11;;;;;;;5.97;0.60;;;;;;;;;;4991537;28;20069;-47
2023/12/13 13:27:38;;;;;;;3.92;0.50;;;;;;;;;;4990679;28;20040;-52
2023/12/13 13:30:08;;;;;;;3.65;0.40;;;;;;;;;;4993994;28;20557;-47
2023/12/13 13:32:36;;;;;;;3.65;0.55;;;;;;;;;;4991827;28;20043;-50
2023/12/13 13:35:05;;;;;;;3.10;0.50;;;;;;;;;;4995002;28;20045;-48
2023/12/13 13:37:51;;;;;;;3.08;0.40;;;;;;;;;;4998880;28;20179;-47
2023/12/13 13:40:19;;;;;;;2.67;0.50;;;;;;;;;;4997620;28;20499;-50
2023/12/13 13:42:46;;;;;;;3.38;0.40;;;;;;;;;;4976835;28;20686;-49
2023/12/13 13:45:16;;;;;;;2.80;0.50;;;;;;;;;;5003538;28;20052;-51
2023/12/13 13:47:43;;;;;;;3.83;0.70;;;;;;;;;;4988578;28;20056;-50
2023/12/13 13:50:11;;;;;;;2.90;0.50;;;;;;;;;;5006512;28;20131;-48
2023/12/13 13:52:39;;;;;;;3.70;0.75;;;;;;;;;;4988695;28;20541;-48
2023/12/13 13:55:08;;;;;;;4.20;0.90;;;;;;;;;;4996865;28;20076;-49
2023/12/13 13:57:36;;;;;;;4.15;0.55;;;;;;;;;;4994788;28;20591;-48
2023/12/13 14:00:10;;;;;;;2.73;0.40;;;;;;;;;;4975847;28;20052;-49
2023/12/13 14:02:39;;;;;;;3.78;0.50;;;;;;;;;;4964020;28;20370;-50
2023/12/13 14:05:08;;;;;;;4.70;0.60;;;;;;;;;;4988278;28;20049;-52
2023/12/13 14:07:36;;;;;;;3.38;0.47;;;;;;;;;;4966086;28;20042;-48
2023/12/13 14:10:10;;;;;;;3.85;0.60;;;;;;;;;;4981538;28;20045;-47
2023/12/13 14:12:39;;;;;;;4.27;0.60;;;;;;;;;;4980503;28;20049;-48
2023/12/13 14:15:08;;;;;;;4.00;0.60;;;;;;;;;;4972348;28;20095;-49
2023/12/13 14:17:36;;;;;;;3.47;0.45;;;;;;;;;;4987922;28;20046;-54
2023/12/13 14:20:07;;;;;;;3.50;0.60;;;;;;;;;;4968111;28;21054;-48
2023/12/13 14:22:36;;;;;;;3.13;0.40;;;;;;;;;;4979825;28;20124;-50
2023/12/13 14:25:04;;;;;;;4.57;0.50;;;;;;;;;;4969720;28;20049;-52
2023/12/13 14:27:32;;;;;;;5.43;0.50;;;;;;;;;;4981815;28;20076;-48
2023/12/13 14:30:21;;;;;;;4.03;0.50;;;;;;;;;;4982828;28;20033;-49
2023/12/13 14:32:49;;;;;;;5.63;0.43;;;;;;;;;;4968853;28;20120;-48
2023/12/13 14:35:18;;;;;;;3.03;0.43;;;;;;;;;;4976987;28;21102;-51
2023/12/13 14:37:46;;;;;;;6.27;0.60;;;;;;;;;;4984312;28;20060;-49
2023/12/13 14:40:15;;;;;;;5.85;0.60;;;;;;;;;;4973500;28;20057;-48
2023/12/13 14:42:44;;;;;;;5.30;0.50;;;;;;;;;;4980024;28;20046;-47
2023/12/13 14:45:12;;;;;;;4.63;0.32;;;;;;;;;;4977345;28;20063;-51